sensor_id;sensor_type;location;lat;lon;timestamp;pressure;altitude;pressure_sealevel;temperature;humidity
20210;BME280;10264;53.178;5.840;2022-07-29T00:00:00;102114.13;;;15.57;100.00
20210;BME280;10264;53.178;5.840;2022-07-29T00:02:27;102116.16;;;15.49;100.00
20210;BME280;10264;53.178;5.840;2022-07-29T00:04:54;102109.00;;;15.52;100.00
20210;BME280;10264;53.178;5.840;2022-07-29T00:07:21;102105.47;;;15.52;100.00
20210;BME280;10264;53.178;5.840;2022-07-29T00:09:47;102100.06;;;15.55;100.00
20210;BME280;10264;53.178;5.840;2022-07-29T00:12:21;102101.09;;;15.51;100.00
20210;BME280;10264;53.178;5.840;2022-07-29T00:14:53;102097.78;;;15.44;100.00
20210;BME280;10264;53.178;5.840;2022-07-29T00:17:20;102093.28;;;15.46;100.00
20210;BME280;10264;53.178;5.840;2022-07-29T00:19:46;102084.28;;;15.52;100.00
20210;BME280;10264;53.178;5.840;2022-07-29T00:22:13;102087.75;;;15.54;100.00
20210;BME280;10264;53.178;5.840;2022-07-29T00:24:40;102081.75;;;15.47;100.00
20210;BME280;10264;53.178;5.840;2022-07-29T00:27:06;102078.22;;;15.47;100.00
20210;BME280;10264;53.178;5.840;2022-07-29T00:29:32;102080.59;;;15.56;100.00
20210;BME280;10264;53.178;5.840;2022-07-29T00:32:01;102078.28;;;15.45;100.00
20210;BME280;10264;53.178;5.840;2022-07-29T00:34:28;102074.59;;;15.49;100.00
20210;BME280;10264;53.178;5.840;2022-07-29T00:36:54;102065.91;;;15.46;100.00
20210;BME280;10264;53.178;5.840;2022-07-29T00:39:21;102061.47;;;15.46;100.00
20210;BME280;10264;53.178;5.840;2022-07-29T00:41:47;102058.06;;;15.43;100.00
20210;BME280;10264;53.178;5.840;2022-07-29T00:44:14;102051.91;;;15.42;100.00
20210;BME280;10264;53.178;5.840;2022-07-29T00:46:41;102045.94;;;15.36;100.00
20210;BME280;10264;53.178;5.840;2022-07-29T00:49:08;102042.50;;;15.34;100.00
20210;BME280;10264;53.178;5.840;2022-07-29T00:51:36;102041.59;;;15.35;100.00
20210;BME280;10264;53.178;5.840;2022-07-29T00:54:04;102035.25;;;15.39;100.00
20210;BME280;10264;53.178;5.840;2022-07-29T00:56:31;102038.59;;;15.44;100.00
20210;BME280;10264;53.178;5.840;2022-07-29T00:58:59;102040.56;;;15.39;100.00
20210;BME280;10264;53.178;5.840;2022-07-29T01:01:26;102039.47;;;15.44;100.00
20210;BME280;10264;53.178;5.840;2022-07-29T01:03:53;102036.81;;;15.44;100.00
20210;BME280;10264;53.178;5.840;2022-07-29T01:06:20;102031.72;;;15.38;100.00
20210;BME280;10264;53.178;5.840;2022-07-29T01:08:47;102031.78;;;15.37;100.00
20210;BME280;10264;53.178;5.840;2022-07-29T01:11:15;102030.56;;;15.45;100.00
20210;BME280;10264;53.178;5.840;2022-07-29T01:13:45;102027.06;;;15.45;100.00
20210;BME280;10264;53.178;5.840;2022-07-29T01:16:19;102020.47;;;15.32;100.00
20210;BME280;10264;53.178;5.840;2022-07-29T01:18:49;102012.31;;;15.38;100.00
20210;BME280;10264;53.178;5.840;2022-07-29T01:24:30;102007.50;;;15.49;100.00
20210;BME280;10264;53.178;5.840;2022-07-29T01:29:49;102012.09;;;15.44;100.00
20210;BME280;10264;53.178;5.840;2022-07-29T01:32:21;102010.88;;;15.54;100.00
20210;BME280;10264;53.178;5.840;2022-07-29T01:35:02;102008.22;;;15.54;100.00
20210;BME280;10264;53.178;5.840;2022-07-29T01:38:01;101999.44;;;15.52;100.00
20210;BME280;10264;53.178;5.840;2022-07-29T01:40:48;102000.94;;;15.59;100.00
20210;BME280;10264;53.178;5.840;2022-07-29T01:43:30;101997.28;;;15.63;100.00
20210;BME280;10264;53.178;5.840;2022-07-29T01:46:02;101992.06;;;15.60;100.00
20210;BME280;10264;53.178;5.840;2022-07-29T01:48:35;101986.41;;;15.69;100.00
20210;BME280;10264;53.178;5.840;2022-07-29T01:51:25;101980.44;;;15.64;100.00
20210;BME280;10264;53.178;5.840;2022-07-29T01:54:02;101980.91;;;15.75;100.00
20210;BME280;10264;53.178;5.840;2022-07-29T01:56:31;101978.38;;;15.72;100.00
20210;BME280;10264;53.178;5.840;2022-07-29T01:59:01;101971.34;;;15.71;100.00
20210;BME280;10264;53.178;5.840;2022-07-29T02:01:31;101976.59;;;15.73;100.00
20210;BME280;10264;53.178;5.840;2022-07-29T02:04:02;101977.16;;;15.81;100.00
20210;BME280;10264;53.178;5.840;2022-07-29T02:06:32;101976.16;;;15.83;100.00
20210;BME280;10264;53.178;5.840;2022-07-29T02:09:00;101975.22;;;15.84;100.00
20210;BME280;10264;53.178;5.840;2022-07-29T02:11:31;101970.94;;;15.82;100.00
20210;BME280;10264;53.178;5.840;2022-07-29T02:14:00;101972.59;;;15.84;100.00
20210;BME280;10264;53.178;5.840;2022-07-29T02:16:30;101964.63;;;15.84;100.00
20210;BME280;10264;53.178;5.840;2022-07-29T02:19:00;101961.06;;;15.85;100.00
20210;BME280;10264;53.178;5.840;2022-07-29T02:21:28;101961.19;;;15.82;100.00
20210;BME280;10264;53.178;5.840;2022-07-29T02:23:57;101958.41;;;15.85;100.00
20210;BME280;10264;53.178;5.840;2022-07-29T02:26:26;101963.94;;;15.79;100.00
20210;BME280;10264;53.178;5.840;2022-07-29T02:28:55;101956.84;;;15.80;100.00
20210;BME280;10264;53.178;5.840;2022-07-29T02:31:24;101961.50;;;15.73;100.00
20210;BME280;10264;53.178;5.840;2022-07-29T02:33:52;101958.63;;;15.79;100.00
20210;BME280;10264;53.178;5.840;2022-07-29T02:36:22;101952.63;;;15.74;100.00
20210;BME280;10264;53.178;5.840;2022-07-29T02:38:49;101961.66;;;15.70;100.00
20210;BME280;10264;53.178;5.840;2022-07-29T02:43:47;101958.06;;;15.71;100.00
20210;BME280;10264;53.178;5.840;2022-07-29T02:46:18;101955.09;;;15.57;100.00
20210;BME280;10264;53.178;5.840;2022-07-29T02:49:15;101950.75;;;15.54;100.00
20210;BME280;10264;53.178;5.840;2022-07-29T02:51:45;101944.69;;;15.51;100.00
20210;BME280;10264;53.178;5.840;2022-07-29T02:54:37;101949.91;;;15.54;100.00
20210;BME280;10264;53.178;5.840;2022-07-29T02:57:11;101935.28;;;15.42;100.00
20210;BME280;10264;53.178;5.840;2022-07-29T02:59:41;101929.25;;;15.39;100.00
20210;BME280;10264;53.178;5.840;2022-07-29T03:02:09;101940.88;;;15.35;100.00
20210;BME280;10264;53.178;5.840;2022-07-29T03:04:40;101937.53;;;15.30;100.00
20210;BME280;10264;53.178;5.840;2022-07-29T03:07:08;101920.88;;;15.26;100.00
20210;BME280;10264;53.178;5.840;2022-07-29T03:09:37;101918.75;;;15.36;100.00
20210;BME280;10264;53.178;5.840;2022-07-29T03:12:04;101913.34;;;15.39;100.00
20210;BME280;10264;53.178;5.840;2022-07-29T03:14:31;101912.88;;;15.27;100.00
20210;BME280;10264;53.178;5.840;2022-07-29T03:16:58;101912.06;;;15.25;100.00
20210;BME280;10264;53.178;5.840;2022-07-29T03:19:26;101910.09;;;15.31;100.00
20210;BME280;10264;53.178;5.840;2022-07-29T03:21:56;101908.41;;;15.30;100.00
20210;BME280;10264;53.178;5.840;2022-07-29T03:24:34;101909.34;;;15.27;100.00
20210;BME280;10264;53.178;5.840;2022-07-29T03:27:02;101897.78;;;15.30;100.00
20210;BME280;10264;53.178;5.840;2022-07-29T03:29:29;101906.75;;;15.25;100.00
20210;BME280;10264;53.178;5.840;2022-07-29T03:32:00;101900.50;;;15.28;100.00
20210;BME280;10264;53.178;5.840;2022-07-29T03:34:28;101903.41;;;15.20;100.00
20210;BME280;10264;53.178;5.840;2022-07-29T03:36:55;101903.66;;;15.14;100.00
20210;BME280;10264;53.178;5.840;2022-07-29T03:39:29;101899.75;;;15.24;100.00
20210;BME280;10264;53.178;5.840;2022-07-29T03:41:59;101902.28;;;15.27;100.00
20210;BME280;10264;53.178;5.840;2022-07-29T03:44:27;101905.84;;;15.26;100.00
20210;BME280;10264;53.178;5.840;2022-07-29T03:46:56;101904.06;;;15.27;100.00
20210;BME280;10264;53.178;5.840;2022-07-29T03:49:24;101904.00;;;15.28;100.00
20210;BME280;10264;53.178;5.840;2022-07-29T03:51:53;101900.31;;;15.33;100.00
20210;BME280;10264;53.178;5.840;2022-07-29T03:54:19;101903.13;;;15.28;100.00
20210;BME280;10264;53.178;5.840;2022-07-29T03:56:48;101908.63;;;15.23;100.00
20210;BME280;10264;53.178;5.840;2022-07-29T03:59:17;101899.84;;;15.21;100.00
20210;BME280;10264;53.178;5.840;2022-07-29T04:01:44;101891.09;;;15.19;100.00
20210;BME280;10264;53.178;5.840;2022-07-29T04:04:11;101888.47;;;15.19;100.00
20210;BME280;10264;53.178;5.840;2022-07-29T04:06:42;101895.53;;;15.19;100.00
20210;BME280;10264;53.178;5.840;2022-07-29T04:09:10;101894.53;;;15.21;100.00
20210;BME280;10264;53.178;5.840;2022-07-29T04:11:38;101893.63;;;15.22;100.00
20210;BME280;10264;53.178;5.840;2022-07-29T04:14:25;101894.50;;;15.23;100.00
20210;BME280;10264;53.178;5.840;2022-07-29T04:16:52;101884.75;;;15.23;100.00
20210;BME280;10264;53.178;5.840;2022-07-29T04:19:18;101888.09;;;15.28;100.00
20210;BME280;10264;53.178;5.840;2022-07-29T04:21:45;101897.66;;;15.33;100.00
20210;BME280;10264;53.178;5.840;2022-07-29T04:24:11;101894.19;;;15.31;100.00
20210;BME280;10264;53.178;5.840;2022-07-29T04:26:38;101889.91;;;15.28;100.00
20210;BME280;10264;53.178;5.840;2022-07-29T04:29:05;101889.03;;;15.27;100.00
20210;BME280;10264;53.178;5.840;2022-07-29T04:31:31;101885.09;;;15.38;100.00
20210;BME280;10264;53.178;5.840;2022-07-29T04:33:58;101885.25;;;15.35;100.00
20210;BME280;10264;53.178;5.840;2022-07-29T04:36:24;101885.25;;;15.35;100.00
20210;BME280;10264;53.178;5.840;2022-07-29T04:38:55;101885.09;;;15.38;100.00
20210;BME280;10264;53.178;5.840;2022-07-29T04:41:21;101881.28;;;15.45;100.00
20210;BME280;10264;53.178;5.840;2022-07-29T04:43:48;101878.47;;;15.49;100.00
20210;BME280;10264;53.178;5.840;2022-07-29T04:46:15;101882.69;;;15.55;100.00
20210;BME280;10264;53.178;5.840;2022-07-29T04:48:42;101892.06;;;15.63;100.00
20210;BME280;10264;53.178;5.840;2022-07-29T04:51:08;101893.94;;;15.61;100.00
20210;BME280;10264;53.178;5.840;2022-07-29T04:53:35;101889.50;;;15.62;100.00
20210;BME280;10264;53.178;5.840;2022-07-29T04:56:02;101892.56;;;15.73;100.00
20210;BME280;10264;53.178;5.840;2022-07-29T04:58:28;101892.72;;;15.70;100.00
20210;BME280;10264;53.178;5.840;2022-07-29T05:00:55;101892.47;;;15.76;100.00
20210;BME280;10264;53.178;5.840;2022-07-29T05:03:21;101893.06;;;15.83;100.00
20210;BME280;10264;53.178;5.840;2022-07-29T05:05:48;101907.66;;;15.94;100.00
20210;BME280;10264;53.178;5.840;2022-07-29T05:08:14;101903.22;;;15.95;100.00
20210;BME280;10264;53.178;5.840;2022-07-29T05:10:41;101908.31;;;15.99;100.00
20210;BME280;10264;53.178;5.840;2022-07-29T05:13:07;101909.25;;;15.98;100.00
20210;BME280;10264;53.178;5.840;2022-07-29T05:15:34;101914.19;;;16.07;100.00
20210;BME280;10264;53.178;5.840;2022-07-29T05:18:02;101914.00;;;15.90;100.00
20210;BME280;10264;53.178;5.840;2022-07-29T05:20:29;101922.09;;;16.09;100.00
20210;BME280;10264;53.178;5.840;2022-07-29T05:22:56;101919.97;;;16.17;100.00
20210;BME280;10264;53.178;5.840;2022-07-29T05:25:24;101923.19;;;16.25;100.00
20210;BME280;10264;53.178;5.840;2022-07-29T05:28:09;101934.09;;;16.39;100.00
20210;BME280;10264;53.178;5.840;2022-07-29T05:30:35;101936.88;;;16.58;100.00
20210;BME280;10264;53.178;5.840;2022-07-29T05:33:02;101945.53;;;16.63;100.00
20210;BME280;10264;53.178;5.840;2022-07-29T05:35:28;101946.50;;;16.61;100.00
20210;BME280;10264;53.178;5.840;2022-07-29T05:37:55;101942.75;;;16.86;100.00
20210;BME280;10264;53.178;5.840;2022-07-29T05:40:21;101949.09;;;17.02;100.00
20210;BME280;10264;53.178;5.840;2022-07-29T05:42:48;101960.38;;;17.28;100.00
20210;BME280;10264;53.178;5.840;2022-07-29T05:45:14;101966.28;;;17.73;100.00
20210;BME280;10264;53.178;5.840;2022-07-29T05:47:41;101966.47;;;18.25;100.00
20210;BME280;10264;53.178;5.840;2022-07-29T05:50:08;101961.81;;;19.82;100.00
20210;BME280;10264;53.178;5.840;2022-07-29T05:52:34;101980.44;;;21.20;100.00
20210;BME280;10264;53.178;5.840;2022-07-29T05:55:01;101998.50;;;21.87;100.00
20210;BME280;10264;53.178;5.840;2022-07-29T05:57:27;102011.84;;;22.44;100.00
20210;BME280;10264;53.178;5.840;2022-07-29T05:59:53;102009.16;;;22.44;100.00
20210;BME280;10264;53.178;5.840;2022-07-29T06:02:20;102022.59;;;21.30;100.00
20210;BME280;10264;53.178;5.840;2022-07-29T06:04:46;102011.25;;;21.27;100.00
20210;BME280;10264;53.178;5.840;2022-07-29T06:07:13;102016.88;;;23.02;100.00
20210;BME280;10264;53.178;5.840;2022-07-29T06:09:39;102046.66;;;25.08;100.00
20210;BME280;10264;53.178;5.840;2022-07-29T06:12:06;102081.34;;;26.03;100.00
20210;BME280;10264;53.178;5.840;2022-07-29T06:14:32;102080.19;;;24.67;100.00
20210;BME280;10264;53.178;5.840;2022-07-29T06:16:59;102068.78;;;23.78;100.00
20210;BME280;10264;53.178;5.840;2022-07-29T06:19:25;102050.25;;;22.57;100.00
20210;BME280;10264;53.178;5.840;2022-07-29T06:21:52;102029.53;;;21.91;100.00
20210;BME280;10264;53.178;5.840;2022-07-29T06:24:18;102026.31;;;20.98;100.00
20210;BME280;10264;53.178;5.840;2022-07-29T06:26:45;102014.66;;;20.85;100.00
20210;BME280;10264;53.178;5.840;2022-07-29T06:29:12;102007.56;;;20.38;100.00
20210;BME280;10264;53.178;5.840;2022-07-29T06:31:38;102007.66;;;20.53;100.00
20210;BME280;10264;53.178;5.840;2022-07-29T06:34:05;101995.06;;;20.55;100.00
20210;BME280;10264;53.178;5.840;2022-07-29T06:36:35;101995.66;;;20.89;100.00
20210;BME280;10264;53.178;5.840;2022-07-29T06:39:06;102013.63;;;21.02;100.00
20210;BME280;10264;53.178;5.840;2022-07-29T06:41:33;102015.72;;;21.26;100.00
20210;BME280;10264;53.178;5.840;2022-07-29T06:44:00;102024.72;;;21.54;100.00
20210;BME280;10264;53.178;5.840;2022-07-29T06:46:27;102028.56;;;21.64;100.00
20210;BME280;10264;53.178;5.840;2022-07-29T06:48:53;102028.69;;;22.32;100.00
20210;BME280;10264;53.178;5.840;2022-07-29T06:51:21;102049.97;;;22.88;100.00
20210;BME280;10264;53.178;5.840;2022-07-29T06:53:51;102036.78;;;21.89;100.00
20210;BME280;10264;53.178;5.840;2022-07-29T06:56:27;102045.97;;;21.85;100.00
20210;BME280;10264;53.178;5.840;2022-07-29T06:58:54;102027.69;;;23.00;100.00
20210;BME280;10264;53.178;5.840;2022-07-29T07:01:21;102064.81;;;24.33;100.00
20210;BME280;10264;53.178;5.840;2022-07-29T07:03:48;102070.47;;;25.36;100.00
20210;BME280;10264;53.178;5.840;2022-07-29T07:06:14;102090.44;;;24.62;100.00
20210;BME280;10264;53.178;5.840;2022-07-29T07:08:41;102097.47;;;24.52;100.00
20210;BME280;10264;53.178;5.840;2022-07-29T07:11:08;102093.59;;;23.82;100.00
20210;BME280;10264;53.178;5.840;2022-07-29T07:13:34;102092.94;;;23.91;100.00
20210;BME280;10264;53.178;5.840;2022-07-29T07:16:02;102098.81;;;24.34;100.00
20210;BME280;10264;53.178;5.840;2022-07-29T07:18:29;102107.44;;;23.88;100.00
20210;BME280;10264;53.178;5.840;2022-07-29T07:20:57;102099.19;;;23.27;100.00
20210;BME280;10264;53.178;5.840;2022-07-29T07:23:23;102077.25;;;22.13;100.00
20210;BME280;10264;53.178;5.840;2022-07-29T07:25:50;102062.25;;;22.10;100.00
20210;BME280;10264;53.178;5.840;2022-07-29T07:28:17;102071.03;;;22.12;100.00
20210;BME280;10264;53.178;5.840;2022-07-29T07:30:50;102068.34;;;22.12;100.00
20210;BME280;10264;53.178;5.840;2022-07-29T07:33:16;102081.94;;;22.09;100.00
20210;BME280;10264;53.178;5.840;2022-07-29T07:35:43;102079.63;;;21.89;100.00
20210;BME280;10264;53.178;5.840;2022-07-29T07:38:09;102069.22;;;21.26;100.00
20210;BME280;10264;53.178;5.840;2022-07-29T07:40:36;102065.72;;;21.40;100.00
20210;BME280;10264;53.178;5.840;2022-07-29T07:43:02;102074.59;;;21.41;100.00
20210;BME280;10264;53.178;5.840;2022-07-29T07:45:29;102059.91;;;20.42;100.00
20210;BME280;10264;53.178;5.840;2022-07-29T07:47:55;102051.06;;;20.09;100.00
20210;BME280;10264;53.178;5.840;2022-07-29T07:50:22;102042.97;;;20.26;100.00
20210;BME280;10264;53.178;5.840;2022-07-29T07:52:54;102046.94;;;20.35;100.00
20210;BME280;10264;53.178;5.840;2022-07-29T07:55:20;102046.06;;;20.66;100.00
20210;BME280;10264;53.178;5.840;2022-07-29T07:57:47;102062.19;;;21.10;100.00
20210;BME280;10264;53.178;5.840;2022-07-29T08:00:15;102063.47;;;20.73;100.00
20210;BME280;10264;53.178;5.840;2022-07-29T08:02:42;102060.13;;;21.15;100.00
20210;BME280;10264;53.178;5.840;2022-07-29T08:05:09;102065.78;;;20.79;100.00
20210;BME280;10264;53.178;5.840;2022-07-29T08:07:38;102069.13;;;21.72;100.00
20210;BME280;10264;53.178;5.840;2022-07-29T08:10:05;102066.22;;;21.47;100.00
20210;BME280;10264;53.178;5.840;2022-07-29T08:12:31;102070.63;;;21.76;100.00
20210;BME280;10264;53.178;5.840;2022-07-29T08:14:58;102071.50;;;22.60;100.00
20210;BME280;10264;53.178;5.840;2022-07-29T08:17:24;102086.50;;;23.68;100.00
20210;BME280;10264;53.178;5.840;2022-07-29T08:19:51;102100.72;;;24.32;100.00
20210;BME280;10264;53.178;5.840;2022-07-29T08:22:18;102109.69;;;25.51;100.00
20210;BME280;10264;53.178;5.840;2022-07-29T08:24:44;102120.81;;;26.26;100.00
20210;BME280;10264;53.178;5.840;2022-07-29T08:27:11;102129.59;;;25.95;100.00
20210;BME280;10264;53.178;5.840;2022-07-29T08:29:57;102124.34;;;27.56;100.00
20210;BME280;10264;53.178;5.840;2022-07-29T08:32:24;102134.53;;;28.14;100.00
20210;BME280;10264;53.178;5.840;2022-07-29T08:35:10;102127.22;;;27.22;100.00
20210;BME280;10264;53.178;5.840;2022-07-29T08:37:37;102132.09;;;26.42;100.00
20210;BME280;10264;53.178;5.840;2022-07-29T08:40:04;102127.00;;;25.36;100.00
20210;BME280;10264;53.178;5.840;2022-07-29T08:42:30;102130.81;;;24.50;100.00
20210;BME280;10264;53.178;5.840;2022-07-29T08:44:57;102117.34;;;24.26;100.00
20210;BME280;10264;53.178;5.840;2022-07-29T08:47:25;102116.47;;;23.87;100.00
20210;BME280;10264;53.178;5.840;2022-07-29T08:49:53;102120.22;;;24.23;100.00
20210;BME280;10264;53.178;5.840;2022-07-29T08:52:20;102121.72;;;23.76;100.00
20210;BME280;10264;53.178;5.840;2022-07-29T08:54:48;102119.06;;;23.76;100.00
20210;BME280;10264;53.178;5.840;2022-07-29T08:57:15;102126.13;;;23.52;100.00
20210;BME280;10264;53.178;5.840;2022-07-29T08:59:46;102112.50;;;23.16;100.00
20210;BME280;10264;53.178;5.840;2022-07-29T09:02:19;102107.63;;;22.40;100.00
20210;BME280;10264;53.178;5.840;2022-07-29T09:04:46;102095.06;;;22.55;100.00
20210;BME280;10264;53.178;5.840;2022-07-29T09:07:18;102089.63;;;22.42;100.00
20210;BME280;10264;53.178;5.840;2022-07-29T09:09:45;102077.31;;;22.26;100.00
20210;BME280;10264;53.178;5.840;2022-07-29T09:12:12;102088.88;;;21.84;100.00
20210;BME280;10264;53.178;5.840;2022-07-29T09:14:54;102089.38;;;21.90;100.00
20210;BME280;10264;53.178;5.840;2022-07-29T09:17:47;102078.56;;;21.77;100.00
20210;BME280;10264;53.178;5.840;2022-07-29T09:20:19;102080.84;;;21.84;100.00
20210;BME280;10264;53.178;5.840;2022-07-29T09:22:46;102078.97;;;22.14;100.00
20210;BME280;10264;53.178;5.840;2022-07-29T09:25:13;102082.66;;;22.26;100.00
20210;BME280;10264;53.178;5.840;2022-07-29T09:27:39;102073.81;;;22.52;100.00
20210;BME280;10264;53.178;5.840;2022-07-29T09:30:08;102069.25;;;22.40;100.00
20210;BME280;10264;53.178;5.840;2022-07-29T09:32:54;102064.47;;;22.31;100.00
20210;BME280;10264;53.178;5.840;2022-07-29T09:35:24;102060.31;;;21.84;100.00
20210;BME280;10264;53.178;5.840;2022-07-29T09:37:51;102063.00;;;22.12;100.00
20210;BME280;10264;53.178;5.840;2022-07-29T09:40:20;102062.38;;;22.36;100.00
20210;BME280;10264;53.178;5.840;2022-07-29T09:42:47;102075.00;;;22.48;100.00
20210;BME280;10264;53.178;5.840;2022-07-29T09:45:27;102060.72;;;22.47;100.00
20210;BME280;10264;53.178;5.840;2022-07-29T09:47:54;102062.38;;;22.36;100.00
20210;BME280;10264;53.178;5.840;2022-07-29T09:50:21;102064.31;;;22.34;100.00
20210;BME280;10264;53.178;5.840;2022-07-29T09:52:50;102071.91;;;21.99;100.00
20210;BME280;10264;53.178;5.840;2022-07-29T09:55:17;102059.94;;;22.04;100.00
20210;BME280;10264;53.178;5.840;2022-07-29T09:57:46;102064.34;;;22.05;100.00
20210;BME280;10264;53.178;5.840;2022-07-29T10:00:17;102056.47;;;22.16;100.00
20210;BME280;10264;53.178;5.840;2022-07-29T10:02:45;102064.22;;;21.93;100.00
20210;BME280;10264;53.178;5.840;2022-07-29T10:05:30;102057.25;;;21.76;100.00
20210;BME280;10264;53.178;5.840;2022-07-29T10:08:02;102047.69;;;21.86;100.00
20210;BME280;10264;53.178;5.840;2022-07-29T10:10:33;102043.69;;;21.93;100.00
20210;BME280;10264;53.178;5.840;2022-07-29T10:13:06;102032.38;;;21.74;100.00
20210;BME280;10264;53.178;5.840;2022-07-29T10:15:41;102008.84;;;21.37;100.00
20210;BME280;10264;53.178;5.840;2022-07-29T10:18:08;101991.56;;;21.28;100.00
20210;BME280;10264;53.178;5.840;2022-07-29T10:20:36;101974.44;;;21.30;100.00
20210;BME280;10264;53.178;5.840;2022-07-29T10:23:03;101979.50;;;21.21;100.00
20210;BME280;10264;53.178;5.840;2022-07-29T10:25:30;101982.41;;;21.60;100.00
20210;BME280;10264;53.178;5.840;2022-07-29T10:27:57;101995.13;;;21.43;100.00
20210;BME280;10264;53.178;5.840;2022-07-29T10:30:24;101984.19;;;21.31;100.00
20210;BME280;10264;53.178;5.840;2022-07-29T10:43:36;102014.75;;;22.53;100.00
20210;BME280;10264;53.178;5.840;2022-07-29T10:46:04;102015.56;;;22.68;100.00
20210;BME280;10264;53.178;5.840;2022-07-29T10:49:17;102030.50;;;23.37;100.00
20210;BME280;10264;53.178;5.840;2022-07-29T10:54:39;102052.88;;;23.50;100.00
20210;BME280;10264;53.178;5.840;2022-07-29T10:59:40;102049.22;;;22.18;100.00
20210;BME280;10264;53.178;5.840;2022-07-29T11:10:47;102034.59;;;21.82;100.00
20210;BME280;10264;53.178;5.840;2022-07-29T11:13:51;102019.59;;;21.93;100.00
20210;BME280;10264;53.178;5.840;2022-07-29T11:16:20;102016.16;;;22.05;100.00
20210;BME280;10264;53.178;5.840;2022-07-29T11:21:41;102015.38;;;22.30;100.00
20210;BME280;10264;53.178;5.840;2022-07-29T11:24:28;102025.28;;;22.30;100.00
20210;BME280;10264;53.178;5.840;2022-07-29T11:27:16;102035.78;;;22.33;100.00
20210;BME280;10264;53.178;5.840;2022-07-29T11:29:54;102024.19;;;22.05;100.00
20210;BME280;10264;53.178;5.840;2022-07-29T11:32:24;102019.59;;;21.93;100.00
20210;BME280;10264;53.178;5.840;2022-07-29T11:35:16;102007.31;;;21.89;100.00
20210;BME280;10264;53.178;5.840;2022-07-29T11:38:26;102011.16;;;21.71;100.00
20210;BME280;10264;53.178;5.840;2022-07-29T11:43:59;102026.16;;;22.02;100.00
20210;BME280;10264;53.178;5.840;2022-07-29T11:49:12;102027.81;;;21.62;100.00
20210;BME280;10264;53.178;5.840;2022-07-29T11:51:41;102019.56;;;22.07;100.00
20210;BME280;10264;53.178;5.840;2022-07-29T11:54:16;102020.72;;;21.89;100.00
20210;BME280;10264;53.178;5.840;2022-07-29T11:56:53;102031.78;;;22.11;100.00
20210;BME280;10264;53.178;5.840;2022-07-29T11:59:19;102034.19;;;22.02;100.00
20210;BME280;10264;53.178;5.840;2022-07-29T12:01:57;102032.38;;;21.88;100.00
20210;BME280;10264;53.178;5.840;2022-07-29T12:04:55;102038.03;;;22.80;100.00
20210;BME280;10264;53.178;5.840;2022-07-29T12:07:28;102040.69;;;23.07;100.00
20210;BME280;10264;53.178;5.840;2022-07-29T12:10:01;102039.75;;;23.33;100.00
20210;BME280;10264;53.178;5.840;2022-07-29T12:12:28;102045.59;;;23.52;100.00
20210;BME280;10264;53.178;5.840;2022-07-29T12:14:54;102055.16;;;23.17;100.00
20210;BME280;10264;53.178;5.840;2022-07-29T12:17:29;102060.81;;;23.89;100.00
20210;BME280;10264;53.178;5.840;2022-07-29T12:19:58;102052.25;;;24.33;100.00
20210;BME280;10264;53.178;5.840;2022-07-29T12:22:26;102052.84;;;24.50;100.00
20210;BME280;10264;53.178;5.840;2022-07-29T12:24:54;102056.63;;;24.95;100.00
20210;BME280;10264;53.178;5.840;2022-07-29T12:27:41;102058.59;;;24.80;100.00
20210;BME280;10264;53.178;5.840;2022-07-29T12:30:11;102066.16;;;25.23;100.00
20210;BME280;10264;53.178;5.840;2022-07-29T12:32:45;102070.78;;;25.55;100.00
20210;BME280;10264;53.178;5.840;2022-07-29T12:35:14;102078.91;;;25.32;100.00
20210;BME280;10264;53.178;5.840;2022-07-29T12:37:43;102082.09;;;25.02;100.00
20210;BME280;10264;53.178;5.840;2022-07-29T12:40:12;102078.44;;;25.03;100.00
20210;BME280;10264;53.178;5.840;2022-07-29T12:42:39;102083.56;;;24.58;100.00
20210;BME280;10264;53.178;5.840;2022-07-29T12:45:06;102080.56;;;24.87;100.00
20210;BME280;10264;53.178;5.840;2022-07-29T12:47:33;102095.06;;;25.89;100.00
20210;BME280;10264;53.178;5.840;2022-07-29T12:50:16;102087.69;;;26.46;100.00
20210;BME280;10264;53.178;5.840;2022-07-29T12:52:44;102080.69;;;26.98;100.00
20210;BME280;10264;53.178;5.840;2022-07-29T12:55:11;102081.81;;;26.19;100.00
20210;BME280;10264;53.178;5.840;2022-07-29T12:57:45;102077.75;;;25.23;100.00
20210;BME280;10264;53.178;5.840;2022-07-29T13:00:13;102071.66;;;25.56;100.00
20210;BME280;10264;53.178;5.840;2022-07-29T13:02:41;102076.81;;;25.92;100.00
20210;BME280;10264;53.178;5.840;2022-07-29T13:05:09;102076.44;;;26.08;100.00
20210;BME280;10264;53.178;5.840;2022-07-29T13:07:36;102074.44;;;26.55;100.00
20210;BME280;10264;53.178;5.840;2022-07-29T13:10:21;102075.09;;;26.36;100.00
20210;BME280;10264;53.178;5.840;2022-07-29T13:15:28;102071.50;;;25.57;100.00
20210;BME280;10264;53.178;5.840;2022-07-29T13:17:55;102074.13;;;26.03;100.00
20210;BME280;10264;53.178;5.840;2022-07-29T13:20:27;102084.75;;;26.16;100.00
20210;BME280;10264;53.178;5.840;2022-07-29T13:22:56;102076.19;;;26.00;100.00
20210;BME280;10264;53.178;5.840;2022-07-29T13:25:26;102066.78;;;26.28;100.00
20210;BME280;10264;53.178;5.840;2022-07-29T13:27:53;102067.22;;;25.20;100.00
20210;BME280;10264;53.178;5.840;2022-07-29T13:30:20;102078.28;;;25.96;100.00
20210;BME280;10264;53.178;5.840;2022-07-29T13:32:47;102068.34;;;26.08;100.00
20210;BME280;10264;53.178;5.840;2022-07-29T13:35:13;102070.66;;;26.01;100.00
20210;BME280;10264;53.178;5.840;2022-07-29T13:37:40;102068.81;;;26.46;100.00